Time;durP1;ratioP1;P1;durP2;ratioP2;P2;SDS_P1;SDS_P2;PMS_P1;PMS_P2;Temp;Humidity;BMP_temperature;BMP_pressure;BME280_temperature;BME280_humidity;BME280_pressure;Samples;Min_cycle;Max_cycle;Signal;HPM_P1;HPM_P2
2021/10/31 00:00:14;;;;;;;224.07;213.07;;;;;;;12.25;50.35;100411.41;690261;28;45292;-67
2021/10/31 00:00:35;;;;;;;239.57;227.82;;;;;;;12.24;50.14;100411.63;689465;28;113341;-67
2021/10/31 00:00:56;;;;;;;234.60;223.15;;;;;;;12.24;49.98;100406.19;692303;28;21578;-67
2021/10/31 00:01:18;;;;;;;230.85;219.60;;;;;;;12.23;50.15;100408.06;692624;28;22395;-67
2021/10/31 00:01:39;;;;;;;246.32;234.40;;;;;;;12.22;50.17;100411.81;690797;28;46417;-67
2021/10/31 00:02:00;;;;;;;233.05;221.73;;;;;;;12.20;50.39;100405.75;692441;28;21488;-67
2021/10/31 00:02:22;;;;;;;254.70;242.35;;;;;;;12.19;50.35;100404.06;692383;28;22391;-67
2021/10/31 00:02:43;;;;;;;257.95;245.45;;;;;;;12.17;50.45;100400.75;690812;28;46385;-67
2021/10/31 00:03:04;;;;;;;254.60;242.25;;;;;;;12.17;50.36;100406.16;692542;28;22540;-67
2021/10/31 00:03:25;;;;;;;275.15;261.83;;;;;;;12.18;50.15;100405.13;692712;28;22517;-67
2021/10/31 00:03:47;;;;;;;265.63;252.75;;;;;;;12.18;50.40;100407.84;692609;28;22378;-67
2021/10/31 00:04:08;;;;;;;281.25;267.65;;;;;;;12.16;50.31;100407.22;691289;28;46314;-67
2021/10/31 00:04:29;;;;;;;278.35;264.85;;;;;;;12.15;50.65;100394.69;692723;28;22364;-67
2021/10/31 00:04:50;;;;;;;264.58;251.77;;;;;;;12.18;50.30;100407.00;692694;28;23445;-67
2021/10/31 00:05:13;;;;;;;285.55;271.75;;;;;;;12.18;50.30;100412.44;692161;28;22452;-67
2021/10/31 00:05:34;;;;;;;277.73;264.33;;;;;;;12.17;50.42;100406.16;691442;28;45440;-67
2021/10/31 00:05:55;;;;;;;273.50;260.50;;;;;;;12.18;50.62;100407.00;691946;28;22484;-67
2021/10/31 00:06:17;;;;;;;291.70;277.75;;;;;;;12.18;50.51;100407.84;691680;28;46048;-67
2021/10/31 00:06:39;;;;;;;297.27;282.70;;;;;;;12.19;50.40;100419.50;691475;28;46334;-67
2021/10/31 00:07:00;;;;;;;311.55;296.38;;;;;;;12.16;50.56;100404.50;691594;28;46340;-67
2021/10/31 00:07:21;;;;;;;298.92;284.52;;;;;;;12.18;50.34;100409.72;692455;28;23414;-67
2021/10/31 00:07:43;;;;;;;308.45;293.55;;;;;;;12.18;50.53;100404.31;692060;28;23505;-67
2021/10/31 00:08:05;;;;;;;303.83;289.13;;;;;;;12.20;50.71;100413.06;691581;28;46313;-67
2021/10/31 00:08:26;;;;;;;334.30;318.20;;;;;;;12.19;50.63;100406.78;692431;28;21296;-67
2021/10/31 00:08:47;;;;;;;330.95;315.00;;;;;;;12.20;50.61;100415.75;692688;28;22481;-67
2021/10/31 00:09:08;;;;;;;320.23;304.85;;;;;;;12.18;50.65;100407.84;691574;28;45465;-67
2021/10/31 00:09:30;;;;;;;332.40;316.45;;;;;;;12.18;50.63;100415.97;691788;28;21521;-67
2021/10/31 00:09:51;;;;;;;319.50;304.27;;;;;;;12.17;50.66;100419.69;691494;28;46312;-67
2021/10/31 00:10:12;;;;;;;333.90;317.85;;;;;;;12.16;50.64;100412.63;691928;28;22377;-67
2021/10/31 00:10:34;;;;;;;341.02;324.83;;;;;;;12.16;50.73;100418.03;692434;28;21679;-67
2021/10/31 00:10:57;;;;;;;344.95;328.55;;;;;;;12.15;50.66;100415.53;691458;28;46546;-66
2021/10/31 00:11:19;;;;;;;365.27;347.75;;;;;;;12.17;50.56;100419.69;690777;28;67607;-67
2021/10/31 00:11:40;;;;;;;347.67;331.00;;;;;;;12.15;50.55;100415.53;688011;28;44865;-67
2021/10/31 00:12:02;;;;;;;358.50;341.20;;;;;;;12.16;50.71;100411.75;688660;28;23482;-67
2021/10/31 00:12:24;;;;;;;365.10;347.55;;;;;;;12.18;50.81;100412.44;686087;28;44740;-67
2021/10/31 00:12:45;;;;;;;351.05;334.23;;;;;;;12.18;50.91;100412.44;686290;28;44377;-67
2021/10/31 00:13:06;;;;;;;364.23;346.70;;;;;;;12.15;50.77;100410.94;686915;28;22439;-67
2021/10/31 00:13:28;;;;;;;355.48;338.40;;;;;;;12.14;50.73;100414.66;686814;28;23481;-66
2021/10/31 00:13:49;;;;;;;372.88;354.92;;;;;;;12.14;50.89;100411.13;688866;28;46305;-66
2021/10/31 00:14:10;;;;;;;360.00;342.75;;;;;;;12.15;50.89;100419.06;689844;28;22228;-67
2021/10/31 00:14:32;;;;;;;348.73;331.92;;;;;;;12.14;50.60;100414.66;692547;28;23422;-67
2021/10/31 00:14:55;;;;;;;366.63;349.08;;;;;;;12.13;50.64;100407.59;691694;28;22278;-67
2021/10/31 00:15:16;;;;;;;346.33;329.80;;;;;;;12.14;50.68;100409.25;689617;28;89242;-68
2021/10/31 00:15:37;;;;;;;356.08;339.17;;;;;;;12.13;50.97;100415.72;691538;28;45210;-66
2021/10/31 00:15:59;;;;;;;353.55;336.77;;;;;;;12.13;50.88;100412.16;692363;28;21512;-67
2021/10/31 00:16:20;;;;;;;332.95;316.98;;;;;;;12.14;50.72;100424.66;691934;28;45345;-67
2021/10/31 00:16:41;;;;;;;337.60;321.45;;;;;;;12.13;50.71;100417.56;692429;28;21530;-67
2021/10/31 00:17:04;;;;;;;329.58;313.88;;;;;;;12.12;51.06;100416.75;692260;28;23376;-67
2021/10/31 00:17:26;;;;;;;328.15;312.52;;;;;;;12.14;50.78;100416.53;689370;28;27794;-67
2021/10/31 00:17:47;;;;;;;332.95;316.95;;;;;;;12.14;50.85;100425.50;687685;28;45258;-67
2021/10/31 00:18:08;;;;;;;341.20;324.80;;;;;;;12.15;50.65;100421.75;686105;28;46319;-67
2021/10/31 00:18:30;;;;;;;344.40;327.83;;;;;;;12.15;50.90;100418.22;686960;28;22417;-67
2021/10/31 00:18:52;;;;;;;324.58;308.90;;;;;;;12.14;50.77;100420.06;687158;28;22420;-67
2021/10/31 00:19:13;;;;;;;343.20;326.58;;;;;;;12.13;50.78;100421.13;686129;28;47324;-66
2021/10/31 00:19:34;;;;;;;343.73;327.17;;;;;;;12.13;50.85;100421.13;689887;28;22515;-67
2021/10/31 00:19:56;;;;;;;327.52;311.77;;;;;;;12.15;50.79;100423.63;690191;28;21544;-67
2021/10/31 00:20:17;;;;;;;338.63;322.33;;;;;;;12.13;51.02;100421.13;687598;28;66359;-67
2021/10/31 00:20:41;;;;;;;345.92;329.30;;;;;;;12.12;50.86;100411.31;689880;28;23405;-66
2021/10/31 00:21:02;;;;;;;362.83;345.17;;;;;;;12.12;51.13;100419.44;686613;28;90339;-67
2021/10/31 00:21:26;;;;;;;341.98;325.60;;;;;;;12.11;50.84;100420.47;689910;28;22385;-66
2021/10/31 00:21:47;;;;;;;339.30;323.05;;;;;;;12.11;50.97;100423.19;685940;28;90767;-67
2021/10/31 00:22:08;;;;;;;361.85;344.40;;;;;;;12.11;50.89;100417.75;690966;28;22407;-67
2021/10/31 00:22:29;;;;;;;341.40;324.95;;;;;;;12.11;50.93;100420.47;692833;28;23406;-67
2021/10/31 00:22:50;;;;;;;338.60;322.35;;;;;;;12.11;51.17;100427.75;692762;28;21542;-67
2021/10/31 00:23:16;;;;;;;353.58;336.52;;;;;;;12.10;51.10;100423.38;692592;28;22392;-67
2021/10/31 00:23:37;;;;;;;324.58;308.75;;;;;;;12.09;51.01;100422.53;688173;28;138021;-67
2021/10/31 00:23:58;;;;;;;342.75;326.23;;;;;;;12.08;51.17;100426.28;692533;28;23443;-67
2021/10/31 00:24:19;;;;;;;356.38;339.20;;;;;;;12.06;51.05;100421.06;692638;28;22364;-67
2021/10/31 00:24:41;;;;;;;334.67;318.63;;;;;;;12.04;51.39;100431.25;692534;28;23468;-67
2021/10/31 00:25:03;;;;;;;352.33;335.33;;;;;;;12.04;51.37;100427.72;692088;28;23397;-66
2021/10/31 00:25:24;;;;;;;346.48;329.85;;;;;;;12.03;51.15;100424.16;691528;28;42997;-67
2021/10/31 00:25:45;;;;;;;338.05;321.95;;;;;;;12.03;51.43;100423.31;692667;28;23403;-67
2021/10/31 00:26:10;;;;;;;356.63;339.30;;;;;;;12.04;51.46;100422.28;689855;28;92466;-66
2021/10/31 00:26:31;;;;;;;342.08;325.77;;;;;;;12.01;51.57;100419.97;691303;28;44339;-66
2021/10/31 00:26:52;;;;;;;343.45;327.02;;;;;;;12.01;51.28;100423.50;692201;28;22347;-67
2021/10/31 00:27:14;;;;;;;351.70;334.70;;;;;;;12.01;51.34;100425.38;690576;28;45276;-67
2021/10/31 00:27:36;;;;;;;332.90;317.00;;;;;;;12.03;51.66;100424.16;688683;28;46169;-68
2021/10/31 00:27:57;;;;;;;346.63;330.02;;;;;;;12.01;51.34;100433.50;690249;28;7170;-67
2021/10/31 00:28:18;;;;;;;339.27;322.92;;;;;;;12.02;51.46;100429.75;689259;28;21621;-67
2021/10/31 00:28:39;;;;;;;325.73;309.95;;;;;;;12.01;51.40;100423.50;689636;28;22397;-67
2021/10/31 00:29:01;;;;;;;332.65;316.60;;;;;;;12.01;51.67;100422.69;689715;28;23819;-67
2021/10/31 00:29:22;;;;;;;334.67;318.42;;;;;;;12.00;51.63;100432.66;689384;28;46196;-67
2021/10/31 00:29:44;;;;;;;351.10;334.15;;;;;;;11.99;51.52;100427.44;692644;28;23432;-67
2021/10/31 00:30:05;;;;;;;332.05;316.08;;;;;;;12.00;51.67;100426.41;691789;28;21562;-67
2021/10/31 00:30:27;;;;;;;348.83;331.80;;;;;;;12.01;51.51;100430.81;689524;28;30133;-67
2021/10/31 00:30:48;;;;;;;347.45;330.77;;;;;;;12.01;51.57;100428.09;688965;28;46309;-67
2021/10/31 00:31:10;;;;;;;343.85;327.33;;;;;;;12.02;51.50;100432.47;688958;28;43579;-67
2021/10/31 00:31:31;;;;;;;370.45;352.45;;;;;;;12.02;51.90;100424.34;688571;28;46274;-67
2021/10/31 00:31:53;;;;;;;339.92;323.45;;;;;;;12.01;51.54;100426.22;689371;28;22130;-67
2021/10/31 00:32:14;;;;;;;308.42;293.63;;;;;;;12.03;51.82;100426.03;688608;28;46327;-67
2021/10/31 00:32:35;;;;;;;310.98;296.05;;;;;;;12.02;51.87;100425.19;692688;28;22407;-67
2021/10/31 00:32:59;;;;;;;304.05;289.45;;;;;;;12.01;51.92;100428.91;692710;28;23506;-67
2021/10/31 00:33:21;;;;;;;313.63;298.40;;;;;;;11.99;51.79;100424.72;690191;28;92228;-67
2021/10/31 00:33:43;;;;;;;305.35;290.60;;;;;;;12.02;51.71;100427.03;691476;28;45208;-67
2021/10/31 00:34:04;;;;;;;309.90;294.92;;;;;;;12.01;51.86;100426.22;692368;28;23424;-67
2021/10/31 00:34:25;;;;;;;319.63;304.23;;;;;;;12.04;51.88;100433.13;689903;28;1400;-68
2021/10/31 00:34:47;;;;;;;310.42;295.48;;;;;;;12.03;51.93;100424.16;689564;28;22345;-67
2021/10/31 00:35:08;;;;;;;328.27;312.40;;;;;;;12.04;52.05;100431.25;687938;28;45326;-67
2021/10/31 00:35:29;;;;;;;310.42;295.42;;;;;;;12.04;51.91;100425.00;689573;28;22391;-67
2021/10/31 00:35:51;;;;;;;314.38;299.17;;;;;;;12.05;52.04;100435.63;688564;28;23459;-67
2021/10/31 00:36:13;;;;;;;339.23;322.88;;;;;;;12.06;52.02;100425.63;690282;28;23431;-67
2021/10/31 00:36:36;;;;;;;322.73;307.20;;;;;;;12.06;51.74;100429.16;691820;28;43493;-67
2021/10/31 00:36:57;;;;;;;313.75;298.63;;;;;;;12.05;51.96;100432.94;690302;28;91916;-67
2021/10/31 00:37:19;;;;;;;329.83;313.92;;;;;;;12.06;51.80;100431.88;692237;28;23424;-67
2021/10/31 00:37:41;;;;;;;321.50;305.95;;;;;;;12.06;51.70;100431.88;691853;28;24117;-67
2021/10/31 00:38:02;;;;;;;347.38;330.77;;;;;;;12.07;51.93;100433.56;691495;28;44203;-67
2021/10/31 00:38:24;;;;;;;335.42;319.42;;;;;;;12.08;52.08;100434.38;692778;28;23544;-66
2021/10/31 00:38:45;;;;;;;310.05;295.15;;;;;;;12.07;51.81;100433.56;691818;28;45233;-67
2021/10/31 00:39:09;;;;;;;320.83;305.48;;;;;;;12.10;51.96;100434.19;692708;28;22709;-67
2021/10/31 00:39:31;;;;;;;303.17;288.67;;;;;;;12.10;52.19;100436.91;689318;28;115910;-67
2021/10/31 00:39:53;;;;;;;299.60;285.17;;;;;;;12.08;52.08;100429.84;691448;28;46331;-67
2021/10/31 00:40:14;;;;;;;317.20;301.95;;;;;;;12.08;51.92;100437.97;691680;28;23420;-67
2021/10/31 00:40:35;;;;;;;303.60;289.05;;;;;;;12.08;52.14;100437.09;692629;28;23441;-66
2021/10/31 00:40:56;;;;;;;309.92;295.08;;;;;;;12.08;52.14;100434.38;688360;28;46294;-66
2021/10/31 00:41:18;;;;;;;321.20;305.73;;;;;;;12.07;52.30;100433.56;688942;28;22389;-66
2021/10/31 00:41:40;;;;;;;297.95;283.55;;;;;;;12.07;51.97;100432.75;688886;28;43692;-67
2021/10/31 00:42:01;;;;;;;322.55;306.77;;;;;;;12.08;52.07;100434.38;688915;28;21520;-67
2021/10/31 00:42:22;;;;;;;323.02;307.42;;;;;;;12.09;52.03;100436.06;689488;28;22433;-67
2021/10/31 00:42:43;;;;;;;301.08;286.63;;;;;;;12.10;52.33;100435.06;689994;28;23479;-66
2021/10/31 00:43:06;;;;;;;293.70;279.60;;;;;;;12.08;51.97;100434.38;692361;28;21570;-66
2021/10/31 00:43:28;;;;;;;308.83;293.90;;;;;;;12.08;52.09;100427.13;691712;28;14365;-66
2021/10/31 00:43:50;;;;;;;287.23;273.20;;;;;;;12.07;52.31;100430.84;693284;28;972;-67
2021/10/31 00:44:11;;;;;;;310.45;295.55;;;;;;;12.07;52.37;100430.84;692115;28;22404;-67
2021/10/31 00:44:33;;;;;;;315.17;300.05;;;;;;;12.06;52.17;100429.16;692788;28;22360;-67
2021/10/31 00:44:54;;;;;;;289.90;275.92;;;;;;;12.06;52.41;100426.47;691921;28;46207;-67
2021/10/31 00:45:16;;;;;;;283.58;269.85;;;;;;;12.07;52.17;100430.03;692250;28;4291;-67
2021/10/31 00:45:37;;;;;;;300.60;286.08;;;;;;;12.06;52.39;100440.00;691776;28;46705;-67
2021/10/31 00:45:59;;;;;;;288.73;274.83;;;;;;;12.06;52.36;100431.88;692409;28;22415;-67
2021/10/31 00:46:20;;;;;;;307.13;292.20;;;;;;;12.08;52.26;100437.97;688418;28;43102;-67
2021/10/31 00:46:41;;;;;;;287.88;273.95;;;;;;;12.07;52.31;100433.56;689791;28;22897;-67
2021/10/31 00:47:03;;;;;;;279.05;265.60;;;;;;;12.07;52.49;100422.72;689171;28;23305;-67
2021/10/31 00:47:25;;;;;;;292.95;278.80;;;;;;;12.08;52.37;100434.38;688965;28;44398;-67
2021/10/31 00:47:48;;;;;;;278.33;264.70;;;;;;;12.08;52.65;100434.38;688129;28;45372;-67
2021/10/31 00:48:09;;;;;;;286.38;272.45;;;;;;;12.09;52.24;100436.06;689133;28;44561;-67
2021/10/31 00:48:30;;;;;;;291.75;277.80;;;;;;;12.08;52.58;100435.25;691728;28;46408;-67
2021/10/31 00:48:51;;;;;;;280.45;266.85;;;;;;;12.09;52.44;100436.06;692492;28;22443;-67
2021/10/31 00:49:13;;;;;;;299.08;284.60;;;;;;;12.10;52.50;100434.19;692088;28;23418;-67
2021/10/31 00:49:35;;;;;;;289.65;275.55;;;;;;;12.11;52.33;100427.75;691800;28;46226;-67
2021/10/31 00:49:56;;;;;;;306.85;292.00;;;;;;;12.12;52.47;100432.16;690742;28;46350;-67
2021/10/31 00:50:18;;;;;;;315.27;299.98;;;;;;;12.13;52.36;100436.50;692267;28;22502;-67
2021/10/31 00:50:41;;;;;;;300.30;285.80;;;;;;;12.15;52.49;100431.75;691758;28;45224;-67
2021/10/31 00:51:02;;;;;;;311.70;296.73;;;;;;;12.16;52.15;100439.69;690058;28;69271;-67
2021/10/31 00:51:25;;;;;;;300.40;285.85;;;;;;;12.16;52.34;100437.00;692650;28;22414;-67
2021/10/31 00:51:48;;;;;;;316.10;300.80;;;;;;;12.17;52.30;100441.34;691900;28;46435;-67
2021/10/31 00:52:11;;;;;;;317.00;301.65;;;;;;;12.18;52.44;100445.75;687925;28;68945;-67
2021/10/31 00:52:32;;;;;;;295.83;281.52;;;;;;;12.18;52.18;100428.66;686875;28;92282;-67
2021/10/31 00:52:53;;;;;;;295.35;281.15;;;;;;;12.17;52.18;100430.50;689042;28;45023;-68
2021/10/31 00:53:16;;;;;;;300.35;285.85;;;;;;;12.17;52.22;100438.63;688995;28;21472;-67
2021/10/31 00:53:39;;;;;;;321.10;305.55;;;;;;;12.19;52.14;100431.16;687940;28;68351;-67
2021/10/31 00:54:00;;;;;;;301.58;286.98;;;;;;;12.19;52.25;100435.75;689750;28;45245;-67
2021/10/31 00:54:21;;;;;;;323.77;308.20;;;;;;;12.19;52.39;100433.84;691720;28;43712;-67
2021/10/31 00:54:43;;;;;;;321.15;305.80;;;;;;;12.19;52.39;100431.16;692612;28;24326;-67
2021/10/31 00:55:05;;;;;;;300.30;285.90;;;;;;;12.19;52.46;100430.31;690834;28;46295;-67
2021/10/31 00:55:26;;;;;;;311.48;296.48;;;;;;;12.18;52.26;100434.09;690926;28;46334;-67
2021/10/31 00:55:48;;;;;;;303.58;288.92;;;;;;;12.17;52.45;100433.22;692614;28;22415;-67
2021/10/31 00:56:10;;;;;;;307.25;292.45;;;;;;;12.15;52.58;100432.59;692163;28;22266;-67
2021/10/31 00:56:31;;;;;;;306.33;291.55;;;;;;;12.16;52.32;100437.00;690583;28;69224;-67
2021/10/31 00:56:53;;;;;;;308.10;293.17;;;;;;;12.15;52.40;100431.75;688837;28;22389;-67
2021/10/31 00:57:14;;;;;;;309.33;294.35;;;;;;;12.18;52.27;100434.91;686660;28;22624;-67
2021/10/31 00:57:36;;;;;;;299.08;284.52;;;;;;;12.19;52.23;100433.84;687432;28;859;-67
2021/10/31 00:57:59;;;;;;;324.40;308.70;;;;;;;12.19;52.27;100438.44;686167;28;46285;-67
2021/10/31 00:58:20;;;;;;;310.17;295.27;;;;;;;12.19;52.38;100433.03;685282;28;67503;-67
2021/10/31 00:58:41;;;;;;;302.15;287.70;;;;;;;12.18;52.67;100432.19;684315;28;23452;-67
2021/10/31 00:59:04;;;;;;;326.73;311.10;;;;;;;12.16;52.36;100431.56;686993;28;22183;-67
2021/10/31 00:59:25;;;;;;;310.33;295.35;;;;;;;12.17;52.61;100430.50;689013;28;44183;-67
2021/10/31 00:59:46;;;;;;;308.80;293.95;;;;;;;12.18;52.44;100434.09;689723;28;22385;-67
2021/10/31 01:00:09;;;;;;;324.65;309.05;;;;;;;12.17;52.35;100427.81;689661;28;23403;-67
2021/10/31 01:00:31;;;;;;;301.42;286.83;;;;;;;12.17;52.35;100430.50;687725;28;92509;-67
2021/10/31 01:00:53;;;;;;;307.08;292.23;;;;;;;12.15;52.69;100432.59;692184;28;23754;-67
2021/10/31 01:01:14;;;;;;;301.95;287.42;;;;;;;12.18;52.79;100428.66;690886;28;46377;-67
2021/10/31 01:01:35;;;;;;;306.17;291.45;;;;;;;12.19;52.74;100435.75;691479;28;22367;-67
2021/10/31 01:01:58;;;;;;;300.83;286.35;;;;;;;12.18;52.48;100432.19;692127;28;22390;-67
2021/10/31 01:02:20;;;;;;;332.17;316.27;;;;;;;12.19;52.49;100433.03;690683;28;70149;-67
2021/10/31 01:02:41;;;;;;;318.80;303.63;;;;;;;12.18;52.77;100439.50;691269;28;44396;-67
2021/10/31 01:03:02;;;;;;;304.63;290.02;;;;;;;12.15;52.53;100432.59;691865;28;23485;-67
2021/10/31 01:03:23;;;;;;;325.75;310.00;;;;;;;12.14;52.84;100432.78;691160;28;46317;-67
2021/10/31 01:03:46;;;;;;;314.90;299.75;;;;;;;12.15;52.64;100443.41;692436;28;23459;-67
2021/10/31 01:04:07;;;;;;;307.38;292.63;;;;;;;12.15;52.85;100439.88;691464;28;46415;-67
2021/10/31 01:04:28;;;;;;;316.60;301.38;;;;;;;12.15;52.65;100437.19;692173;28;21436;-67
2021/10/31 01:04:53;;;;;;;304.45;289.70;;;;;;;12.17;52.84;100438.63;692521;28;22421;-67
2021/10/31 01:05:19;;;;;;;321.98;306.42;;;;;;;12.17;52.83;100438.63;687887;28;116023;-67
2021/10/31 01:05:46;;;;;;;300.17;285.65;;;;;;;12.15;52.93;100440.72;688464;28;136684;-67
2021/10/31 01:06:36;;;;;;;328.60;312.73;;;;;;;12.17;52.93;100444.06;688135;28;136697;-67
2021/10/31 01:07:26;;;;;;;304.00;289.33;;;;;;;12.17;52.69;100441.34;681252;28;137686;-67
2021/10/31 01:08:01;;;;;;;299.30;284.73;;;;;;;12.16;53.08;100442.41;687749;28;138636;-67
2021/10/31 01:08:35;;;;;;;292.38;278.13;;;;;;;12.18;52.77;100439.50;688074;28;137366;-67
2021/10/31 01:09:01;;;;;;;317.08;301.88;;;;;;;12.20;52.99;100442.84;691121;28;61483;-67
2021/10/31 01:09:25;;;;;;;296.10;281.92;;;;;;;12.18;53.04;100439.50;688515;28;137968;-67
2021/10/31 01:09:55;;;;;;;324.83;309.33;;;;;;;12.17;52.92;100438.63;690095;28;91471;-67
2021/10/31 01:10:22;;;;;;;319.30;304.00;;;;;;;12.16;53.13;100433.41;688075;28;137525;-67
2021/10/31 01:11:02;;;;;;;297.70;283.35;;;;;;;12.17;52.88;100435.94;685259;28;137025;-67
2021/10/31 01:11:31;;;;;;;308.58;293.63;;;;;;;12.18;52.99;100439.50;683695;28;157422;-67
2021/10/31 01:12:06;;;;;;;309.25;294.35;;;;;;;12.19;52.83;100439.28;685736;28;135768;-67
2021/10/31 01:12:45;;;;;;;316.73;301.08;;;;;;;12.21;53.12;100448.06;686963;28;99771;-67
2021/10/31 01:13:17;;;;;;;323.70;308.00;;;;;;;12.22;53.02;100435.34;688001;28;138321;-67
2021/10/31 01:13:52;;;;;;;303.70;289.23;;;;;;;12.21;53.12;100434.53;688322;28;136254;-67
2021/10/31 01:14:35;;;;;;;305.02;290.42;;;;;;;12.23;53.18;100442.44;687357;28;160043;-67
2021/10/31 01:15:12;;;;;;;309.00;294.13;;;;;;;12.25;53.18;100437.66;687372;28;137474;-67
2021/10/31 01:15:37;;;;;;;307.67;292.77;;;;;;;12.25;53.04;100448.50;688152;28;136814;-67
2021/10/31 01:16:10;;;;;;;320.08;304.60;;;;;;;12.25;52.98;100438.50;687370;28;138828;-67
2021/10/31 01:16:43;;;;;;;306.90;292.08;;;;;;;12.26;53.21;100442.88;688156;28;135999;-67
2021/10/31 01:17:11;;;;;;;305.58;290.83;;;;;;;12.26;52.97;100442.06;688506;28;137764;-67
2021/10/31 01:18:00;;;;;;;315.08;299.85;;;;;;;12.26;53.31;100442.88;689547;28;104473;-68
2021/10/31 01:18:40;;;;;;;301.15;286.63;;;;;;;12.26;53.08;100440.19;688352;28;137845;-67
2021/10/31 01:19:15;;;;;;;301.13;286.88;;;;;;;12.26;53.06;100445.59;688662;28;137628;-67
2021/10/31 01:19:49;;;;;;;319.95;304.63;;;;;;;12.26;53.32;100447.47;687087;28;160627;-67
2021/10/31 01:20:19;;;;;;;289.98;276.08;;;;;;;12.29;53.05;100451.63;687252;28;160650;-67
2021/10/31 01:20:48;;;;;;;298.65;284.45;;;;;;;12.28;53.12;100445.41;688604;28;137521;-67
2021/10/31 01:21:18;;;;;;;305.02;290.42;;;;;;;12.29;53.09;100452.50;687598;28;138978;-67
2021/10/31 01:21:46;;;;;;;303.63;289.02;;;;;;;12.32;53.23;100451.25;688303;28;138114;-67
2021/10/31 01:22:17;;;;;;;298.55;284.13;;;;;;;12.32;53.21;100453.97;688534;28;137939;-67
2021/10/31 01:23:03;;;;;;;302.35;287.70;;;;;;;12.34;53.13;100450.03;688202;28;137856;-67
2021/10/31 01:23:35;;;;;;;285.55;271.67;;;;;;;12.37;52.90;100454.22;678496;28;121781;-67
2021/10/31 01:24:14;;;;;;;306.13;291.35;;;;;;;12.37;53.18;100456.94;687942;28;137540;-67
2021/10/31 01:25:03;;;;;;;293.75;279.60;;;;;;;12.38;53.06;100450.47;688103;28;135834;-67
2021/10/31 01:25:34;;;;;;;303.13;288.48;;;;;;;12.38;53.45;100453.19;684218;28;156407;-67
2021/10/31 01:26:12;;;;;;;311.90;296.75;;;;;;;12.39;53.25;100452.16;685104;28;135993;-67
2021/10/31 01:26:44;;;;;;;313.67;298.63;;;;;;;12.38;53.14;100450.47;685093;28;137728;-67
2021/10/31 01:27:13;;;;;;;307.20;292.50;;;;;;;12.38;53.16;100450.47;685695;28;137706;-67
2021/10/31 01:27:59;;;;;;;311.80;296.85;;;;;;;12.37;53.38;100449.66;688392;28;138854;-67
2021/10/31 01:28:33;;;;;;;307.15;292.35;;;;;;;12.39;53.08;100452.16;688144;28;139040;-67
2021/10/31 01:29:11;;;;;;;307.65;292.80;;;;;;;12.40;53.32;100451.13;687904;28;138378;-67
2021/10/31 01:29:43;;;;;;;285.70;271.90;;;;;;;12.42;53.04;100454.47;687775;28;137312;-67
2021/10/31 01:30:09;;;;;;;304.77;290.00;;;;;;;12.44;52.97;100449.69;687920;28;137209;-67
2021/10/31 01:30:37;;;;;;;303.40;288.77;;;;;;;12.44;53.29;100450.56;688050;28;137953;-67
2021/10/31 01:31:02;;;;;;;305.10;290.35;;;;;;;12.44;53.06;100458.66;688152;28;136410;-67
2021/10/31 01:31:30;;;;;;;293.92;279.67;;;;;;;12.46;53.07;100452.19;688760;28;116088;-67
2021/10/31 01:32:05;;;;;;;304.25;289.60;;;;;;;12.46;53.21;100453.06;687554;28;159179;-67
2021/10/31 01:32:32;;;;;;;303.05;288.42;;;;;;;12.45;53.11;100456.78;688185;28;136009;-67
2021/10/31 01:33:03;;;;;;;300.52;286.20;;;;;;;12.46;53.39;100454.91;687883;28;136315;-67
2021/10/31 01:33:33;;;;;;;319.65;304.25;;;;;;;12.49;52.96;100454.53;687919;28;136468;-67
2021/10/31 01:33:59;;;;;;;304.70;290.08;;;;;;;12.48;52.98;100459.09;688137;28;136160;-67
2021/10/31 01:34:23;;;;;;;298.67;284.20;;;;;;;12.48;53.22;100452.88;687985;28;139071;-67
2021/10/31 01:34:56;;;;;;;315.85;300.60;;;;;;;12.49;52.99;100446.38;689188;28;70108;-67
2021/10/31 01:35:26;;;;;;;288.17;274.17;;;;;;;12.50;53.01;100458.91;687527;28;139060;-67
2021/10/31 01:35:53;;;;;;;297.17;282.90;;;;;;;12.50;53.33;100454.31;687759;28;161087;-67
2021/10/31 01:36:22;;;;;;;283.90;270.20;;;;;;;12.51;53.13;100460.59;687441;28;155760;-67
2021/10/31 01:36:51;;;;;;;287.38;273.45;;;;;;;12.53;52.97;100469.34;687628;28;160687;-67
2021/10/31 01:37:22;;;;;;;312.60;297.58;;;;;;;12.54;52.89;100455.63;688165;28;137815;-67
2021/10/31 01:37:50;;;;;;;285.55;271.58;;;;;;;12.55;52.98;100456.44;690468;28;60623;-67
2021/10/31 01:38:17;;;;;;;289.33;275.33;;;;;;;12.55;53.03;100462.69;687979;28;136494;-67
2021/10/31 01:38:53;;;;;;;288.45;274.55;;;;;;;12.54;53.11;100466.44;688575;28;137031;-67
2021/10/31 01:39:18;;;;;;;293.00;279.10;;;;;;;12.53;53.29;100464.75;688413;28;137497;-67
2021/10/31 01:39:43;;;;;;;274.42;261.17;;;;;;;12.54;53.32;100468.31;688754;28;92327;-67
2021/10/31 01:40:11;;;;;;;269.63;256.65;;;;;;;12.52;52.99;100465.78;687384;28;138297;-67
2021/10/31 01:40:38;;;;;;;276.52;263.00;;;;;;;12.55;53.25;100465.41;685148;28;137767;-67
2021/10/31 01:41:03;;;;;;;269.58;256.55;;;;;;;12.56;53.08;100463.53;685308;28;137038;-67
2021/10/31 01:41:35;;;;;;;289.00;275.08;;;;;;;12.55;52.86;100459.97;685552;28;113680;-67
2021/10/31 01:42:05;;;;;;;263.98;251.23;;;;;;;12.58;53.03;100465.00;685688;28;137547;-67
2021/10/31 01:42:31;;;;;;;285.05;271.23;;;;;;;12.57;53.20;100460.63;686844;28;137523;-67
2021/10/31 01:43:02;;;;;;;263.58;250.77;;;;;;;12.56;53.02;100463.53;689201;28;114806;-67
2021/10/31 01:43:30;;;;;;;276.40;263.00;;;;;;;12.57;53.23;100468.75;688166;28;138003;-67
2021/10/31 01:43:57;;;;;;;254.43;242.20;;;;;;;12.58;53.12;100466.88;688270;28;136225;-67
2021/10/31 01:44:26;;;;;;;260.73;248.13;;;;;;;12.58;53.08;100466.88;688276;28;137957;-67
2021/10/31 01:44:50;;;;;;;260.20;247.63;;;;;;;12.57;53.25;100462.50;688297;28;138095;-67
2021/10/31 01:45:14;;;;;;;283.27;269.58;;;;;;;12.56;52.68;100464.38;689464;28;92168;-67
2021/10/31 01:45:39;;;;;;;262.58;249.85;;;;;;;12.56;52.95;100466.25;689934;28;90298;-67
2021/10/31 01:46:07;;;;;;;269.23;256.17;;;;;;;12.54;53.25;100462.88;687815;28;137588;-67
2021/10/31 01:46:34;;;;;;;262.13;249.40;;;;;;;12.51;53.23;100464.13;688115;28;138034;-67
2021/10/31 01:47:01;;;;;;;269.67;256.52;;;;;;;12.50;53.31;100467.03;687922;28;137945;-67
2021/10/31 01:47:37;;;;;;;266.48;253.63;;;;;;;12.49;53.29;100465.34;687511;28;160967;-67
2021/10/31 01:48:04;;;;;;;276.20;262.73;;;;;;;12.48;53.46;100461.81;687969;28;137405;-67
2021/10/31 01:48:30;;;;;;;268.17;255.13;;;;;;;12.45;53.63;100462.22;688245;28;138304;-67
2021/10/31 01:48:57;;;;;;;253.45;241.13;;;;;;;12.44;53.63;100464.09;688068;28;139969;-67
2021/10/31 01:49:23;;;;;;;266.25;253.32;;;;;;;12.47;53.35;100467.44;688123;28;136387;-67
2021/10/31 01:49:52;;;;;;;266.48;253.55;;;;;;;12.45;53.37;100464.91;688163;28;138117;-67
2021/10/31 01:50:16;;;;;;;264.83;251.98;;;;;;;12.43;53.64;100469.69;687738;28;137483;-67
2021/10/31 01:50:41;;;;;;;265.00;252.15;;;;;;;12.41;53.76;100467.19;689707;28;91999;-67
2021/10/31 01:51:08;;;;;;;268.52;255.48;;;;;;;12.41;53.62;100461.78;688554;28;115109;-67